createdAt,value
2023-03-31T00:02:28.307Z,-0.34
2023-03-31T00:05:33.385Z,-0.39
2023-03-31T00:08:41.738Z,-0.42
2023-03-31T00:11:47.497Z,-0.50
2023-03-31T00:14:52.842Z,-0.48
2023-03-31T00:17:59.679Z,-0.52
2023-03-31T00:21:05.895Z,-0.56
2023-03-31T00:24:21.956Z,-0.56
2023-03-31T00:27:28.443Z,-0.55
2023-03-31T00:30:35.278Z,-0.51
2023-03-31T00:33:42.869Z,-0.58
2023-03-31T00:36:51.727Z,-0.61
2023-03-31T00:39:59.570Z,-0.75
2023-03-31T00:43:05.382Z,-0.74
2023-03-31T00:46:15.833Z,-0.75
2023-03-31T00:49:14.416Z,-0.75
2023-03-31T00:52:32.488Z,-0.90
2023-03-31T00:55:51.913Z,-0.88
2023-03-31T00:58:57.604Z,-0.92
2023-03-31T01:02:06.050Z,-0.91
2023-03-31T01:05:14.345Z,-0.94
2023-03-31T01:08:20.186Z,-0.96
2023-03-31T01:11:27.769Z,-0.96
2023-03-31T01:14:34.194Z,-0.97
2023-03-31T01:17:41.910Z,-0.98
2023-03-31T01:21:14.971Z,-1.00
2023-03-31T01:24:52.883Z,-1.00
2023-03-31T01:28:32.401Z,-0.97
2023-03-31T01:32:00.965Z,-1.19
2023-03-31T01:35:30.087Z,-1.12
2023-03-31T01:39:03.907Z,-1.17
2023-03-31T01:42:30.805Z,-1.19
2023-03-31T01:46:10.540Z,-1.31
2023-03-31T01:49:46.668Z,-1.38
2023-03-31T01:53:15.925Z,-1.40
2023-03-31T01:56:34.598Z,-1.39
2023-03-31T01:59:51.922Z,-1.46
2023-03-31T02:03:14.497Z,-1.42
2023-03-31T02:06:31.726Z,-1.43
2023-03-31T02:09:45.901Z,-1.64
2023-03-31T02:12:51.907Z,-1.64
2023-03-31T02:16:04.674Z,-1.61
2023-03-31T02:19:12.808Z,-1.67
2023-03-31T02:22:18.792Z,-1.71
2023-03-31T02:25:27.741Z,-1.62
2023-03-31T02:28:39.083Z,-1.53
2023-03-31T02:32:01.788Z,-1.49
2023-03-31T02:35:08.833Z,-1.55
2023-03-31T02:38:15.146Z,-1.53
2023-03-31T02:41:21.835Z,-1.50
2023-03-31T02:44:28.083Z,-1.58
2023-03-31T02:47:34.579Z,-1.66
2023-03-31T02:50:40.397Z,-1.73
2023-03-31T02:54:24.708Z,-1.69
2023-03-31T02:58:13.987Z,-1.83
2023-03-31T03:02:00.907Z,-1.87
2023-03-31T03:05:35.860Z,-1.92
2023-03-31T03:09:16.141Z,-1.95
2023-03-31T03:12:19.145Z,-1.97
2023-03-31T03:15:45.840Z,-2.00
2023-03-31T03:18:38.935Z,-2.01
2023-03-31T03:21:44.531Z,-1.94
2023-03-31T03:24:50.728Z,-1.89
2023-03-31T03:27:56.576Z,-1.89
2023-03-31T03:31:02.380Z,-1.92
2023-03-31T03:34:03.406Z,-1.95
2023-03-31T03:37:09.013Z,-1.97
2023-03-31T03:40:15.204Z,-1.92
2023-03-31T03:43:21.038Z,-1.84
2023-03-31T03:46:26.400Z,-1.76
2023-03-31T03:49:31.955Z,-1.68
2023-03-31T03:52:37.794Z,-1.66
2023-03-31T03:55:44.423Z,-1.67
2023-03-31T03:58:51.862Z,-1.62
2023-03-31T04:01:57.288Z,-1.51
2023-03-31T04:05:05.178Z,-1.36
2023-03-31T04:08:12.454Z,-1.22
2023-03-31T04:11:19.094Z,-1.10
2023-03-31T04:14:24.952Z,-0.95
2023-03-31T04:17:33.471Z,-0.87
2023-03-31T04:20:41.377Z,-0.85
2023-03-31T04:23:53.251Z,-0.75
2023-03-31T04:26:59.380Z,-0.65
2023-03-31T04:30:05.444Z,-0.53
2023-03-31T04:33:13.062Z,-0.45
2023-03-31T04:36:26.180Z,-0.32
2023-03-31T04:39:38.245Z,-0.03
2023-03-31T04:42:43.365Z,0.06
2023-03-31T04:45:49.434Z,0.28
2023-03-31T04:48:56.886Z,0.47
2023-03-31T04:52:02.356Z,0.52
2023-03-31T04:55:09.228Z,0.59
2023-03-31T04:58:15.470Z,0.62
2023-03-31T05:01:23.486Z,0.81
2023-03-31T05:04:29.644Z,0.96
2023-03-31T05:07:35.053Z,1.02
2023-03-31T05:10:41.096Z,1.17
2023-03-31T05:13:47.277Z,1.32
2023-03-31T05:16:53.807Z,1.37
2023-03-31T05:20:00.041Z,1.60
2023-03-31T05:23:05.046Z,1.83
2023-03-31T05:26:10.628Z,1.90
2023-03-31T05:29:16.046Z,2.03
2023-03-31T05:32:21.297Z,2.20
2023-03-31T05:35:26.901Z,2.39
2023-03-31T05:38:32.098Z,2.53
2023-03-31T05:41:38.374Z,2.70
2023-03-31T05:44:43.342Z,2.84
2023-03-31T05:47:49.785Z,2.99
2023-03-31T05:50:55.374Z,3.21
2023-03-31T05:54:01.260Z,3.27
2023-03-31T05:57:07.895Z,3.42
2023-03-31T06:00:16.222Z,3.48
2023-03-31T06:03:21.169Z,3.63
2023-03-31T06:06:26.822Z,3.67
2023-03-31T06:09:33.173Z,3.84
2023-03-31T06:12:39.675Z,3.98
2023-03-31T06:15:46.227Z,4.06
2023-03-31T06:18:52.739Z,4.20
2023-03-31T06:21:58.902Z,4.26
2023-03-31T06:25:05.655Z,4.30
2023-03-31T06:28:06.531Z,4.34
2023-03-31T06:31:20.194Z,4.50
2023-03-31T06:34:25.666Z,4.68
2023-03-31T06:37:31.379Z,4.84
2023-03-31T06:40:35.989Z,4.96
2023-03-31T06:43:41.561Z,5.21
2023-03-31T06:46:48.864Z,5.34
2023-03-31T06:49:55.353Z,5.45
2023-03-31T06:53:02.272Z,5.64
2023-03-31T06:56:08.594Z,5.82
2023-03-31T06:59:15.009Z,5.99
2023-03-31T07:02:20.923Z,6.08
2023-03-31T07:05:29.070Z,6.13
2023-03-31T07:08:35.284Z,6.31
2023-03-31T07:11:34.649Z,6.46
2023-03-31T07:14:22.989Z,6.59
2023-03-31T07:17:15.428Z,6.78
2023-03-31T07:20:29.099Z,7.00
2023-03-31T07:23:35.305Z,7.08
2023-03-31T07:26:41.218Z,7.24
2023-03-31T07:29:46.880Z,7.27
2023-03-31T07:32:53.089Z,7.37
2023-03-31T07:36:10.692Z,7.49
2023-03-31T07:39:08.728Z,7.65
2023-03-31T07:42:15.190Z,7.80
2023-03-31T07:45:22.842Z,7.93
2023-03-31T07:48:28.853Z,7.99
2023-03-31T07:51:37.330Z,8.18
2023-03-31T07:54:43.314Z,7.92
2023-03-31T07:57:50.211Z,7.97
2023-03-31T08:00:50.018Z,8.11
2023-03-31T08:03:56.121Z,8.20
2023-03-31T08:07:01.893Z,8.27
2023-03-31T08:10:08.269Z,8.44
2023-03-31T08:13:15.245Z,8.46
2023-03-31T08:16:21.002Z,8.56
2023-03-31T08:19:27.223Z,8.66
2023-03-31T08:22:32.372Z,8.76
2023-03-31T08:25:38.533Z,8.83
2023-03-31T08:28:44.788Z,8.92
2023-03-31T08:31:52.206Z,9.05
2023-03-31T08:34:58.558Z,9.11
2023-03-31T08:38:04.865Z,9.19
2023-03-31T08:41:15.650Z,9.25
2023-03-31T08:44:33.270Z,9.21
2023-03-31T08:47:39.965Z,8.99
2023-03-31T08:50:47.346Z,8.92
2023-03-31T08:54:05.609Z,8.93
2023-03-31T08:57:12.594Z,8.98
2023-03-31T09:00:20.256Z,8.94
2023-03-31T09:03:48.123Z,9.16
2023-03-31T09:07:03.846Z,8.91
2023-03-31T09:10:22.973Z,9.08
2023-03-31T09:13:36.984Z,9.17
2023-03-31T09:16:52.433Z,8.89
2023-03-31T09:20:35.513Z,8.98
2023-03-31T09:23:46.427Z,8.99
2023-03-31T09:27:02.734Z,9.17
2023-03-31T09:30:15.812Z,9.27
2023-03-31T09:33:38.872Z,9.35
2023-03-31T09:36:49.568Z,9.37
2023-03-31T09:39:55.742Z,9.45
2023-03-31T09:43:02.687Z,9.53
2023-03-31T09:46:09.580Z,9.64
2023-03-31T09:49:29.209Z,9.70
2023-03-31T09:52:46.877Z,9.58
2023-03-31T09:56:06.332Z,9.58
2023-03-31T09:59:17.047Z,9.66
2023-03-31T10:02:52.109Z,9.48
2023-03-31T10:06:10.133Z,9.60
2023-03-31T10:09:22.275Z,9.96
2023-03-31T10:12:37.915Z,10.01
2023-03-31T10:15:45.021Z,9.98
2023-03-31T10:18:54.456Z,10.02
2023-03-31T10:22:02.475Z,10.10
2023-03-31T10:25:08.809Z,10.27
2023-03-31T10:28:08.908Z,10.38
2023-03-31T10:31:15.677Z,10.33
2023-03-31T10:34:43.827Z,10.43
2023-03-31T10:37:51.160Z,10.47
2023-03-31T10:41:00.359Z,10.49
2023-03-31T10:44:12.281Z,10.55
2023-03-31T10:47:32.909Z,10.61
2023-03-31T10:50:46.896Z,10.87
2023-03-31T10:53:59.405Z,10.89
2023-03-31T10:57:16.876Z,10.79
2023-03-31T11:00:30.558Z,10.89
2023-03-31T11:03:47.108Z,10.85
2023-03-31T11:07:09.029Z,11.15
2023-03-31T11:10:19.114Z,11.13
2023-03-31T11:13:44.457Z,11.25
2023-03-31T11:17:19.787Z,11.39
2023-03-31T11:20:54.840Z,11.49
2023-03-31T11:24:17.396Z,11.51
2023-03-31T11:27:52.988Z,11.65
2023-03-31T11:31:28.154Z,11.73
2023-03-31T11:35:10.913Z,11.78
2023-03-31T11:38:54.609Z,11.96
2023-03-31T11:42:05.006Z,11.97
2023-03-31T11:45:15.739Z,12.00
2023-03-31T11:48:23.025Z,11.96
2023-03-31T11:51:42.452Z,12.03
2023-03-31T11:55:12.573Z,11.93
2023-03-31T11:58:40.014Z,11.69
2023-03-31T12:02:09.227Z,11.71
2023-03-31T12:05:15.265Z,11.90
2023-03-31T12:08:41.895Z,11.70
2023-03-31T12:12:17.005Z,11.70
2023-03-31T12:15:48.439Z,11.80
2023-03-31T12:19:16.044Z,11.60
2023-03-31T12:22:41.748Z,11.39
2023-03-31T12:26:23.207Z,11.33
2023-03-31T12:29:47.790Z,11.20
2023-03-31T12:33:01.058Z,11.18
2023-03-31T12:36:12.852Z,11.24
2023-03-31T12:39:55.553Z,11.16
2023-03-31T12:43:14.488Z,11.20
2023-03-31T12:46:59.312Z,11.21
2023-03-31T12:50:20.495Z,11.11
2023-03-31T12:53:42.636Z,10.96
2023-03-31T12:57:23.614Z,10.96
2023-03-31T13:00:40.956Z,11.17
2023-03-31T13:04:06.546Z,11.28
2023-03-31T13:07:27.318Z,11.34
2023-03-31T13:10:31.076Z,11.40
2023-03-31T13:13:44.927Z,11.49
2023-03-31T13:16:46.884Z,11.40
2023-03-31T13:19:54.576Z,11.35
2023-03-31T13:23:03.797Z,11.31
2023-03-31T13:26:13.756Z,11.31
2023-03-31T13:29:33.274Z,11.28
2023-03-31T13:32:40.022Z,11.22
2023-03-31T13:35:46.005Z,11.17
2023-03-31T13:39:19.499Z,11.36
2023-03-31T13:43:06.866Z,11.33
2023-03-31T13:46:50.788Z,11.22
2023-03-31T13:50:26.596Z,11.34
2023-03-31T13:54:17.362Z,11.26
2023-03-31T13:58:00.201Z,11.38
2023-03-31T14:01:20.334Z,11.22
2023-03-31T14:04:43.098Z,11.26
2023-03-31T14:08:04.646Z,11.27
2023-03-31T14:11:31.842Z,11.13
2023-03-31T14:14:38.432Z,10.99
2023-03-31T14:17:54.430Z,10.91
2023-03-31T14:21:20.189Z,10.97
2023-03-31T14:24:52.321Z,11.02
2023-03-31T14:28:41.964Z,10.79
2023-03-31T14:31:54.129Z,10.77
2023-03-31T14:35:17.107Z,10.71
2023-03-31T14:38:28.283Z,10.60
2023-03-31T14:41:38.333Z,10.53
2023-03-31T14:44:43.527Z,10.47
2023-03-31T14:47:48.335Z,10.48
2023-03-31T14:50:53.479Z,10.53
2023-03-31T14:53:58.810Z,10.55
2023-03-31T14:57:11.397Z,10.66
2023-03-31T15:00:19.321Z,10.63
2023-03-31T15:03:28.156Z,10.74
2023-03-31T15:06:34.277Z,10.38
2023-03-31T15:09:45.352Z,10.33
2023-03-31T15:12:51.392Z,10.27
2023-03-31T15:15:58.680Z,10.34
2023-03-31T15:19:03.569Z,10.34
2023-03-31T15:22:14.613Z,10.29
2023-03-31T15:25:25.095Z,10.30
2023-03-31T15:28:31.196Z,10.34
2023-03-31T15:31:39.197Z,10.37
2023-03-31T15:34:46.565Z,10.39
2023-03-31T15:37:55.428Z,10.30
2023-03-31T15:41:10.093Z,10.16
2023-03-31T15:44:24.988Z,10.12
2023-03-31T15:47:45.538Z,10.04
2023-03-31T15:50:49.115Z,9.91
2023-03-31T15:54:04.032Z,9.84
2023-03-31T15:57:12.469Z,9.85
2023-03-31T16:00:18.073Z,9.93
2023-03-31T16:03:35.915Z,9.90
2023-03-31T16:06:53.881Z,9.66
2023-03-31T16:10:09.009Z,9.72
2023-03-31T16:13:18.024Z,9.68
2023-03-31T16:16:29.335Z,9.57
2023-03-31T16:19:35.392Z,9.56
2023-03-31T16:22:46.300Z,9.47
2023-03-31T16:25:53.106Z,9.43
2023-03-31T16:29:04.563Z,9.33
2023-03-31T16:32:27.785Z,9.36
2023-03-31T16:35:33.444Z,9.12
2023-03-31T16:38:43.495Z,9.16
2023-03-31T16:41:49.742Z,9.04
2023-03-31T16:48:15.097Z,9.03
2023-03-31T16:51:12.753Z,8.96
2023-03-31T16:54:18.218Z,8.80
2023-03-31T16:57:24.208Z,9.10
2023-03-31T17:00:30.749Z,9.12
2023-03-31T17:03:37.871Z,9.09
2023-03-31T17:06:44.381Z,9.00
2023-03-31T17:09:49.909Z,8.90
2023-03-31T17:12:56.233Z,8.90
2023-03-31T17:16:16.946Z,8.90
2023-03-31T17:19:10.299Z,8.82
2023-03-31T17:22:15.144Z,8.77
2023-03-31T17:25:21.866Z,8.56
2023-03-31T17:28:28.570Z,8.70
2023-03-31T17:31:35.538Z,8.69
2023-03-31T17:34:41.224Z,8.75
2023-03-31T17:37:46.988Z,8.37
2023-03-31T17:40:53.605Z,8.57
2023-03-31T17:44:02.391Z,8.50
2023-03-31T17:47:08.294Z,8.42
2023-03-31T17:50:14.988Z,7.80
2023-03-31T17:53:21.162Z,7.75
2023-03-31T17:56:29.018Z,7.78
2023-03-31T17:59:34.221Z,7.66
2023-03-31T18:02:40.825Z,7.74
2023-03-31T18:05:41.395Z,7.62
2023-03-31T18:08:49.141Z,7.62
2023-03-31T18:11:54.192Z,7.71
2023-03-31T18:15:02.501Z,7.59
2023-03-31T18:18:08.640Z,7.56
2023-03-31T18:21:22.714Z,7.52
2023-03-31T18:24:27.302Z,7.70
2023-03-31T18:27:33.366Z,7.55
2023-03-31T18:30:38.580Z,7.76
2023-03-31T18:33:45.308Z,7.71
2023-03-31T18:36:52.847Z,7.63
2023-03-31T18:39:59.429Z,7.43
2023-03-31T18:43:05.577Z,7.32
2023-03-31T18:46:11.479Z,7.42
2023-03-31T18:49:16.884Z,7.47
2023-03-31T18:52:23.501Z,7.59
2023-03-31T18:55:29.585Z,7.59
2023-03-31T18:58:36.424Z,7.76
2023-03-31T19:01:44.756Z,7.23
2023-03-31T19:04:51.705Z,7.20
2023-03-31T19:07:51.798Z,7.03
2023-03-31T19:10:57.808Z,7.22
2023-03-31T19:14:03.875Z,7.21
2023-03-31T19:17:10.510Z,7.29
2023-03-31T19:20:18.963Z,7.28
2023-03-31T19:23:25.248Z,7.32
2023-03-31T19:26:31.699Z,7.31
2023-03-31T19:29:38.878Z,7.32
2023-03-31T19:32:45.293Z,7.31
2023-03-31T19:35:52.490Z,7.35
2023-03-31T19:38:59.392Z,7.32
2023-03-31T19:42:04.049Z,7.26
2023-03-31T19:45:09.977Z,7.32
2023-03-31T19:48:16.890Z,7.32
2023-03-31T19:51:25.841Z,7.31
2023-03-31T19:54:32.219Z,7.30
2023-03-31T19:57:38.237Z,7.30
2023-03-31T20:00:44.039Z,7.30
2023-03-31T20:03:51.836Z,7.39
2023-03-31T20:07:00.102Z,7.42
2023-03-31T20:10:06.040Z,7.40
2023-03-31T20:13:12.326Z,7.37
2023-03-31T20:16:24.059Z,7.25
2023-03-31T20:19:30.691Z,7.21
2023-03-31T20:22:29.879Z,7.27
2023-03-31T20:25:36.094Z,7.26
2023-03-31T20:28:41.109Z,7.24
2023-03-31T20:31:48.563Z,7.18
2023-03-31T20:34:53.595Z,7.29
2023-03-31T20:37:59.444Z,7.28
2023-03-31T20:41:07.327Z,7.24
2023-03-31T20:44:14.779Z,7.10
2023-03-31T20:47:20.910Z,7.06
2023-03-31T20:50:28.425Z,7.06
2023-03-31T20:53:33.467Z,7.04
2023-03-31T20:56:43.673Z,6.97
2023-03-31T20:59:50.190Z,6.87
2023-03-31T21:02:55.812Z,6.90
2023-03-31T21:06:01.155Z,6.88
2023-03-31T21:09:07.137Z,6.81
2023-03-31T21:12:12.035Z,6.81
2023-03-31T21:15:17.637Z,6.79
2023-03-31T21:18:24.568Z,6.71
2023-03-31T21:21:32.200Z,6.73
2023-03-31T21:24:37.986Z,6.78
2023-03-31T21:27:43.332Z,6.95
2023-03-31T21:30:48.305Z,6.87
2023-03-31T21:33:55.614Z,6.84
2023-03-31T21:37:02.054Z,6.82
2023-03-31T21:40:08.120Z,6.83
2023-03-31T21:43:13.687Z,6.87
2023-03-31T21:46:18.585Z,6.90
2023-03-31T21:49:25.103Z,6.99
2023-03-31T21:52:31.777Z,6.92
2023-03-31T21:55:36.941Z,6.81
2023-03-31T21:58:43.592Z,6.70
2023-03-31T22:01:48.430Z,6.94
2023-03-31T22:04:54.129Z,6.68
2023-03-31T22:07:59.880Z,6.66
2023-03-31T22:11:06.640Z,6.79
2023-03-31T22:14:12.859Z,6.67
2023-03-31T22:17:18.411Z,6.75
2023-03-31T22:20:24.563Z,6.82
2023-03-31T22:23:29.489Z,6.97
2023-03-31T22:26:36.190Z,6.56
2023-03-31T22:29:42.360Z,6.56
2023-03-31T22:32:46.835Z,6.46
2023-03-31T22:35:52.538Z,6.29
2023-03-31T22:38:52.312Z,6.25
2023-03-31T22:41:58.861Z,6.61
2023-03-31T22:45:04.050Z,6.39
2023-03-31T22:48:10.509Z,6.25
2023-03-31T22:51:20.058Z,6.03
2023-03-31T22:54:30.412Z,6.09
2023-03-31T22:57:37.257Z,6.05
2023-03-31T23:00:43.260Z,6.30
2023-03-31T23:03:50.286Z,6.24
2023-03-31T23:06:57.680Z,6.23
2023-03-31T23:10:03.549Z,6.37
2023-03-31T23:13:10.227Z,6.29
2023-03-31T23:16:24.006Z,6.13
2023-03-31T23:19:29.679Z,6.33
2023-03-31T23:22:36.607Z,6.22
2023-03-31T23:25:42.537Z,6.28
2023-03-31T23:28:54.087Z,5.88
2023-03-31T23:31:59.829Z,5.90
2023-03-31T23:35:05.322Z,5.84
2023-03-31T23:38:11.160Z,5.89
2023-03-31T23:41:17.302Z,5.95
2023-03-31T23:44:23.903Z,5.85
2023-03-31T23:47:29.677Z,5.75
2023-03-31T23:50:35.711Z,5.73
2023-03-31T23:53:40.798Z,6.02
2023-03-31T23:56:48.261Z,5.83
2023-03-31T23:59:53.945Z,6.10
